Allentown, PA

11:58 PM EST on December 17, 2014 (GMT -0500)
South Filmore Street | Change Station
CLOSE
Current Station
Personal Weather Station
Location: Allentown, PA
Elevation: 341 ft
Nearby Weather Stations

Elev 341 ft 40.59 °N, 75.45 °W | Updated 3 minutes ago

Mostly Cloudy
Mostly Cloudy
36.1 °F
Feels Like 29 °F
N
8.9
Wind Variable Wind from WSW

Today
High -- | Low -- °F
--% Chance of Precip.
Yesterday
High -- | Low -- °F
Precip. -- in
7:19 AM 4:36 PM
Waning Crescent, 17% visible
Pressure 29.97 in
Visibility 10.0 miles
Clouds Scattered Clouds 3900 ft
Mostly Cloudy 6000 ft
Windchill 29 °F
Dew Point 27 °F
Humidity 70%
Rainfall 0.00 in
Snow Depth Not available.
UV 0 out of 12
Pollen .10 out of 12
Air Quality Not available.
Flu Activity Not available.
METAR KXLL 180435Z AUTO 27007KT 10SM SCT039 BKN060 02/M05 A2997 RMK AO2

More Conditions Fewer Conditions

Pressure 29.97 in
Visibility 10.0 miles
Clouds Scattered Clouds 3900 ft
Mostly Cloudy 6000 ft
Windchill 29 °F
Dew Point 27 °F
Humidity 70%
Rainfall 0.00 in
Snow Depth Not available.
UV 0 out of 12
Pollen .10 out of 12
Air Quality Not available.
Flu Activity Not available.
METAR KXLL 180435Z AUTO 27007KT 10SM SCT039 BKN060 02/M05 A2997 RMK AO2

More Conditions Fewer Conditions

10-Day Weather Forecast

Almanac

Astronomy

Dec. 17, 2014 Rise Set
Actual Time
Civil Twilight
Nautical Twilight
Astronomical Twilight
Moon
Length of Visible Light
Length of Day
Tomorrow will be .
, % of the Moon is Illuminated

Today's Extremes

State Highs State Lows

Community

WunderPhotos

Upload Photos

1,778,883 photos uploaded!

WunderBlogs® & News

Nearby

Air Quality

  Air Quality AQ Index Pollutant
Not available.

Snow Depth

Station Depth Elevation

Earthquake Activity

City Distance Mag. Time & Date
Minimum magnitude displayed is 2.5.

Coastal Water Temperatures

Place Temperature

Nearby Weather Stations